Time;durP1;ratioP1;P1;durP2;ratioP2;P2;SDS_P1;SDS_P2;PMS_P1;PMS_P2;Temp;Humidity;BMP_temperature;BMP_pressure;BME280_temperature;BME280_humidity;BME280_pressure;Samples;Min_cycle;Max_cycle;Signal;HPM_P1;HPM_P2
2023/12/13 00:01:49;;;;;;;36.00;19.60;;;;;;;5.72;100.00;98075.56;107354;1312;22966;-53
2023/12/13 00:04:14;;;;;;;34.70;20.10;;;;;;;5.73;100.00;98073.73;107337;1312;22345;-50
2023/12/13 00:06:40;;;;;;;33.80;18.80;;;;;;;5.74;100.00;98072.11;107455;1311;22332;-51
2023/12/13 00:09:08;;;;;;;37.70;19.50;;;;;;;5.72;100.00;98067.70;107473;1311;22263;-48
2023/12/13 00:11:34;;;;;;;33.30;18.70;;;;;;;5.75;100.00;98063.56;107484;1311;22266;-46
2023/12/13 00:13:59;;;;;;;37.00;19.20;;;;;;;5.75;100.00;98061.98;107449;1311;22321;-56
2023/12/13 00:16:24;;;;;;;32.20;19.20;;;;;;;5.75;100.00;98056.41;107459;1311;22990;-55
2023/12/13 00:18:50;;;;;;;36.10;19.80;;;;;;;5.74;100.00;98053.70;107461;1311;22229;-58
2023/12/13 00:21:17;;;;;;;33.90;19.30;;;;;;;5.70;100.00;98050.77;107450;1311;22320;-53
2023/12/13 00:23:46;;;;;;;33.40;19.00;;;;;;;5.69;100.00;98049.95;107472;1312;22935;-60
2023/12/13 00:26:19;;;;;;;39.60;20.00;;;;;;;5.70;100.00;98046.95;107468;1311;22300;-57
2023/12/13 00:28:45;;;;;;;36.70;19.00;;;;;;;5.70;100.00;98044.88;107465;1311;23069;-56
2023/12/13 00:31:11;;;;;;;34.60;19.50;;;;;;;5.69;100.00;98040.06;107471;1311;22275;-54
2023/12/13 00:33:38;;;;;;;39.40;20.10;;;;;;;5.69;100.00;98039.36;107449;1311;22232;-57
2023/12/13 00:36:04;;;;;;;36.80;19.40;;;;;;;5.70;100.00;98043.13;107459;1311;23013;-57
2023/12/13 00:38:29;;;;;;;37.10;20.50;;;;;;;5.70;100.00;98046.25;107480;1311;22980;-58
2023/12/13 00:40:55;;;;;;;38.30;21.50;;;;;;;5.68;100.00;98045.66;107462;1311;22297;-58
2023/12/13 00:43:21;;;;;;;38.60;19.60;;;;;;;5.67;100.00;98047.50;107455;1311;22240;-56
2023/12/13 00:45:47;;;;;;;37.70;19.80;;;;;;;5.64;100.00;98040.33;107482;1311;22252;-52
2023/12/13 00:48:12;;;;;;;34.40;20.40;;;;;;;5.63;100.00;98038.48;107443;1311;22466;-52
2023/12/13 00:50:38;;;;;;;38.80;20.00;;;;;;;5.61;100.00;98035.83;107475;1311;22232;-60
2023/12/13 00:53:03;;;;;;;31.10;19.00;;;;;;;5.60;100.00;98031.89;107455;1311;22259;-54
2023/12/13 00:55:29;;;;;;;29.50;18.40;;;;;;;5.58;100.00;98033.90;107430;1311;23137;-54
2023/12/13 00:57:54;;;;;;;32.90;18.60;;;;;;;5.56;100.00;98031.95;107452;1311;22263;-48
2023/12/13 01:00:20;;;;;;;33.10;18.20;;;;;;;5.56;100.00;98031.39;107460;1311;23213;-53
2023/12/13 01:02:45;;;;;;;38.00;19.20;;;;;;;5.56;100.00;98027.58;107373;1311;22325;-57
2023/12/13 01:05:11;;;;;;;38.10;19.00;;;;;;;5.55;100.00;98026.36;107483;1296;22393;-56
2023/12/13 01:07:36;;;;;;;40.10;18.70;;;;;;;5.54;100.00;98025.77;107461;1311;22215;-58
2023/12/13 01:10:01;;;;;;;37.10;18.30;;;;;;;5.56;100.00;98030.02;107483;1311;22695;-55
2023/12/13 01:12:27;;;;;;;34.70;18.50;;;;;;;5.55;100.00;98026.58;107457;1311;23029;-60
2023/12/13 01:14:53;;;;;;;32.60;16.80;;;;;;;5.54;100.00;98020.01;107439;1311;22218;-52
2023/12/13 01:17:18;;;;;;;30.50;17.50;;;;;;;5.53;100.00;98017.11;107460;1311;22236;-57
2023/12/13 01:19:44;;;;;;;30.50;17.50;;;;;;;5.55;100.00;98015.48;107464;1311;22242;-60
2023/12/13 01:22:09;;;;;;;32.20;16.90;;;;;;;5.53;100.00;98014.52;107464;1311;22235;-61
2023/12/13 01:24:36;;;;;;;31.20;17.70;;;;;;;5.51;100.00;98013.41;107455;1311;22244;-55
2023/12/13 01:27:01;;;;;;;32.10;17.80;;;;;;;5.49;100.00;98012.47;107443;1311;22466;-51
2023/12/13 01:29:27;;;;;;;31.80;17.80;;;;;;;5.49;100.00;98013.70;107440;1311;22322;-57
2023/12/13 01:31:52;;;;;;;37.00;19.80;;;;;;;5.50;100.00;98011.38;107439;1311;22317;-52
2023/12/13 01:34:18;;;;;;;37.60;20.60;;;;;;;5.50;100.00;98012.94;107446;1311;22471;-56
2023/12/13 01:36:43;;;;;;;33.60;20.00;;;;;;;5.50;100.00;98008.46;107484;1311;22231;-55
2023/12/13 01:39:09;;;;;;;34.90;19.60;;;;;;;5.50;100.00;98004.60;107453;1311;22162;-59
2023/12/13 01:41:36;;;;;;;31.90;19.10;;;;;;;5.48;100.00;98003.88;107453;1311;23397;-50
2023/12/13 01:44:01;;;;;;;38.10;20.80;;;;;;;5.44;100.00;97999.55;107447;1311;22274;-54
2023/12/13 01:46:30;;;;;;;37.20;19.90;;;;;;;5.43;100.00;97995.63;107455;1311;22246;-54
2023/12/13 01:48:55;;;;;;;37.70;20.30;;;;;;;5.44;100.00;97995.02;107454;1311;22265;-58
2023/12/13 01:51:21;;;;;;;37.50;21.50;;;;;;;5.45;100.00;97991.65;107466;1311;23504;-57
2023/12/13 01:53:46;;;;;;;40.80;22.00;;;;;;;5.47;100.00;97992.63;107449;1311;22697;-54
2023/12/13 01:56:12;;;;;;;41.20;21.30;;;;;;;5.47;100.00;97991.56;107437;1311;22447;-61
2023/12/13 01:58:39;;;;;;;38.80;22.20;;;;;;;5.46;100.00;97989.73;107445;1311;22235;-53
2023/12/13 02:01:06;;;;;;;39.90;22.50;;;;;;;5.45;100.00;97981.27;107459;1311;22213;-57
2023/12/13 02:03:33;;;;;;;41.80;22.40;;;;;;;5.44;100.00;97983.23;107442;1311;22310;-54
2023/12/13 02:06:01;;;;;;;42.10;23.80;;;;;;;5.43;100.00;97986.05;107446;1311;22407;-57
2023/12/13 02:08:26;;;;;;;43.00;23.80;;;;;;;5.43;100.00;97987.10;107458;1311;22389;-54
2023/12/13 02:10:52;;;;;;;45.40;25.40;;;;;;;5.41;100.00;97982.84;107429;1311;22242;-57
2023/12/13 02:13:17;;;;;;;45.30;24.70;;;;;;;5.39;100.00;97978.63;107413;1311;22264;-54
2023/12/13 02:15:44;;;;;;;48.70;24.90;;;;;;;5.36;100.00;97973.37;107437;1311;22218;-50
2023/12/13 02:18:09;;;;;;;45.90;25.10;;;;;;;5.32;100.00;97970.80;107446;1311;22168;-53
2023/12/13 02:20:35;;;;;;;53.00;27.20;;;;;;;5.28;100.00;97967.93;107428;1311;22434;-56
2023/12/13 02:23:02;;;;;;;47.70;26.40;;;;;;;5.23;100.00;97962.64;107437;1311;22247;-60
2023/12/13 02:25:52;;;;;;;47.30;26.60;;;;;;;5.18;100.00;97959.78;107427;1311;23281;-56
2023/12/13 02:28:18;;;;;;;51.50;28.10;;;;;;;5.11;100.00;97956.19;107448;1311;22210;-55
2023/12/13 02:30:46;;;;;;;49.80;28.60;;;;;;;5.04;100.00;97952.71;107431;1311;22228;-53
2023/12/13 02:33:11;;;;;;;55.10;29.60;;;;;;;4.98;100.00;97944.70;107448;1311;22250;-53
2023/12/13 02:35:37;;;;;;;52.90;28.90;;;;;;;4.95;100.00;97941.38;107449;1311;22403;-56
2023/12/13 02:38:02;;;;;;;58.30;30.20;;;;;;;4.94;100.00;97942.66;107422;1311;22318;-55
2023/12/13 02:40:28;;;;;;;58.30;32.80;;;;;;;4.91;100.00;97937.09;107440;1311;22322;-56
2023/12/13 02:42:53;;;;;;;67.60;31.80;;;;;;;4.89;100.00;97937.00;107417;1311;22324;-54
2023/12/13 02:45:20;;;;;;;66.10;33.20;;;;;;;4.85;100.00;97932.38;108065;1305;22226;-53
2023/12/13 02:50:29;;;;;;;63.30;31.70;;;;;;;4.83;100.00;97928.14;106895;1304;545436;-54
2023/12/13 02:52:54;;;;;;;62.00;32.90;;;;;;;4.80;100.00;97921.69;107342;1313;22527;-49
2023/12/13 02:55:20;;;;;;;62.30;33.00;;;;;;;4.76;100.00;97921.92;107368;1313;22472;-49
2023/12/13 02:57:45;;;;;;;57.40;31.80;;;;;;;4.71;100.00;97923.25;107393;1313;22350;-50
2023/12/13 03:00:11;;;;;;;59.60;33.50;;;;;;;4.67;100.00;97919.30;107161;1310;22403;-48
2023/12/13 03:02:39;;;;;;;58.90;33.10;;;;;;;4.63;100.00;97921.04;107641;1301;22251;-49
2023/12/13 03:05:05;;;;;;;64.40;33.40;;;;;;;4.61;100.00;97926.19;107735;1308;143386;-49
2023/12/13 03:07:31;;;;;;;63.40;33.40;;;;;;;4.58;100.00;97926.00;107866;1308;22264;-55
2023/12/13 03:09:56;;;;;;;63.50;33.70;;;;;;;4.57;100.00;97927.45;107854;1308;22342;-56
2023/12/13 03:12:22;;;;;;;70.10;35.60;;;;;;;4.57;100.00;97926.58;107817;1308;22891;-50
2023/12/13 03:14:47;;;;;;;66.90;36.80;;;;;;;4.54;100.00;97923.61;107764;1301;22456;-50
2023/12/13 03:17:13;;;;;;;71.90;34.90;;;;;;;4.53;100.00;97922.27;107737;1309;22448;-47
2023/12/13 03:19:38;;;;;;;69.30;35.50;;;;;;;4.51;100.00;97923.05;107769;1308;23260;-51
2023/12/13 03:22:04;;;;;;;66.60;34.40;;;;;;;4.52;100.00;97922.81;107724;1308;23039;-53
2023/12/13 03:24:29;;;;;;;73.10;34.90;;;;;;;4.54;100.00;97923.60;107741;1309;22254;-52
2023/12/13 03:26:54;;;;;;;65.20;34.30;;;;;;;4.53;100.00;97926.59;107767;1308;22271;-58
2023/12/13 03:29:20;;;;;;;65.80;32.40;;;;;;;4.53;100.00;97934.60;107757;1308;22232;-52
2023/12/13 03:31:45;;;;;;;59.90;31.60;;;;;;;4.52;100.00;97933.94;107743;1308;22322;-52
2023/12/13 03:34:11;;;;;;;68.10;31.30;;;;;;;4.54;100.00;97943.40;107771;1308;22297;-49
2023/12/13 03:36:36;;;;;;;59.50;30.60;;;;;;;4.58;100.00;97943.70;107787;1308;22241;-52
2023/12/13 03:39:02;;;;;;;66.30;33.50;;;;;;;4.57;100.00;97936.46;107758;1308;22188;-54
2023/12/13 03:41:27;;;;;;;64.60;34.40;;;;;;;4.55;100.00;97932.58;107749;1308;22238;-52
2023/12/13 03:43:52;;;;;;;70.20;34.00;;;;;;;4.54;100.00;97938.02;107755;1308;22260;-48
2023/12/13 03:46:18;;;;;;;64.30;33.80;;;;;;;4.52;100.00;97934.48;107698;1308;23037;-49
2023/12/13 03:48:43;;;;;;;64.40;32.00;;;;;;;4.51;100.00;97934.18;107739;1308;22322;-55
2023/12/13 03:51:09;;;;;;;63.30;32.10;;;;;;;4.50;100.00;97934.56;107743;1308;22239;-52
2023/12/13 03:53:38;;;;;;;60.90;31.20;;;;;;;4.49;100.00;97938.76;107765;1308;22489;-50
2023/12/13 03:56:03;;;;;;;57.50;30.60;;;;;;;4.49;100.00;97941.58;107742;1308;22440;-52
2023/12/13 03:58:28;;;;;;;59.00;30.90;;;;;;;4.49;100.00;97931.48;107764;1308;22264;-53
2023/12/13 04:00:54;;;;;;;64.30;32.10;;;;;;;4.52;100.00;97926.99;107737;1309;23359;-53
2023/12/13 04:03:19;;;;;;;63.50;32.00;;;;;;;4.54;100.00;97931.59;107759;1308;22320;-48
2023/12/13 04:05:44;;;;;;;134.80;49.60;;;;;;;4.56;100.00;97930.25;107761;1308;22914;-52
2023/12/13 04:08:10;;;;;;;150.00;59.70;;;;;;;4.56;100.00;97930.45;107758;1308;22331;-51
2023/12/13 04:10:35;;;;;;;95.60;41.30;;;;;;;4.56;100.00;97934.23;107742;1308;22270;-54
2023/12/13 04:13:01;;;;;;;71.70;34.80;;;;;;;4.57;100.00;97931.92;107756;1308;22231;-51
2023/12/13 04:15:26;;;;;;;64.00;31.50;;;;;;;4.59;100.00;97928.20;107759;1308;22318;-50
2023/12/13 04:17:51;;;;;;;59.70;31.70;;;;;;;4.60;100.00;97924.83;107736;1308;22224;-53
2023/12/13 04:20:17;;;;;;;63.70;31.50;;;;;;;4.63;100.00;97921.77;107741;1308;22305;-46
2023/12/13 04:22:42;;;;;;;67.00;31.40;;;;;;;4.64;100.00;97919.29;107743;1308;22936;-49
2023/12/13 04:25:08;;;;;;;56.50;30.00;;;;;;;4.64;100.00;97914.91;107738;1308;22987;-55
2023/12/13 04:27:34;;;;;;;70.90;32.60;;;;;;;4.65;100.00;97911.05;107747;1308;22253;-55
2023/12/13 04:29:59;;;;;;;68.50;32.50;;;;;;;4.65;100.00;97911.92;107736;1309;22210;-54
2023/12/13 04:32:24;;;;;;;67.90;34.00;;;;;;;4.66;100.00;97909.27;107730;1309;22265;-54
2023/12/13 04:34:50;;;;;;;70.80;34.80;;;;;;;4.66;100.00;97908.73;107721;1308;22357;-49
2023/12/13 04:37:15;;;;;;;73.20;36.30;;;;;;;4.69;100.00;97912.05;107728;1309;22252;-47
2023/12/13 04:39:41;;;;;;;79.90;40.40;;;;;;;4.72;100.00;97912.60;107741;1308;22436;-50
2023/12/13 04:42:06;;;;;;;86.40;41.20;;;;;;;4.72;100.00;97907.05;107740;1308;23895;-55
2023/12/13 04:44:31;;;;;;;71.90;35.20;;;;;;;4.72;100.00;97894.17;107753;1309;23356;-52
2023/12/13 04:46:57;;;;;;;69.70;34.40;;;;;;;4.73;100.00;97890.68;107713;1308;22688;-44
2023/12/13 04:49:23;;;;;;;70.70;34.20;;;;;;;4.74;100.00;97889.76;107759;1308;22432;-59
2023/12/13 04:51:48;;;;;;;68.20;33.50;;;;;;;4.74;100.00;97889.38;107747;1308;22411;-50
2023/12/13 04:54:14;;;;;;;71.00;33.00;;;;;;;4.75;100.00;97884.50;107739;1309;22498;-51
2023/12/13 04:56:40;;;;;;;62.40;31.60;;;;;;;4.75;100.00;97881.00;107747;1308;22403;-53
2023/12/13 04:59:05;;;;;;;72.00;33.90;;;;;;;4.78;100.00;97879.60;107727;1308;23330;-49
2023/12/13 05:01:30;;;;;;;70.20;33.80;;;;;;;4.77;100.00;97873.21;107729;1308;22466;-51
2023/12/13 05:03:56;;;;;;;74.10;34.40;;;;;;;4.79;100.00;97874.91;107734;1301;22283;-52
2023/12/13 05:06:21;;;;;;;66.30;32.10;;;;;;;4.77;100.00;97877.61;107712;1308;23021;-61
2023/12/13 05:08:47;;;;;;;55.70;30.10;;;;;;;4.75;100.00;97873.55;107716;1308;22414;-53
2023/12/13 05:11:12;;;;;;;59.00;30.30;;;;;;;4.75;100.00;97868.52;107735;1308;22232;-50
2023/12/13 05:13:37;;;;;;;58.10;30.00;;;;;;;4.77;100.00;97864.21;107721;1308;22253;-48
2023/12/13 05:16:03;;;;;;;60.10;30.00;;;;;;;4.77;100.00;97858.30;107706;1308;22268;-55
2023/12/13 05:18:29;;;;;;;61.10;30.70;;;;;;;4.75;100.00;97862.23;107635;1302;22460;-55
2023/12/13 05:20:55;;;;;;;60.20;30.40;;;;;;;4.77;100.00;97865.08;107626;1310;22229;-52
2023/12/13 05:23:20;;;;;;;62.20;32.20;;;;;;;4.78;100.00;97861.38;107557;1304;23294;-57
2023/12/13 05:25:45;;;;;;;58.20;31.20;;;;;;;4.76;100.00;97861.66;107571;1310;22258;-56
2023/12/13 05:28:11;;;;;;;59.90;33.00;;;;;;;4.73;100.00;97862.19;107585;1309;23048;-51
2023/12/13 05:30:36;;;;;;;59.30;32.20;;;;;;;4.72;100.00;97863.14;107589;1310;23098;-58
2023/12/13 05:33:02;;;;;;;55.20;30.10;;;;;;;4.71;100.00;97860.92;107583;1310;22255;-52
2023/12/13 05:35:27;;;;;;;59.60;32.10;;;;;;;4.71;100.00;97860.23;107619;1307;22893;-51
2023/12/13 05:37:53;;;;;;;62.40;31.00;;;;;;;4.73;100.00;97859.94;107582;1310;22483;-50
2023/12/13 05:40:18;;;;;;;61.00;30.60;;;;;;;4.73;100.00;97862.20;107606;1310;22245;-54
2023/12/13 05:42:44;;;;;;;70.30;33.10;;;;;;;4.72;100.00;97855.29;107605;1310;22257;-54
2023/12/13 05:45:09;;;;;;;57.00;29.70;;;;;;;4.71;100.00;97855.52;107597;1304;22230;-56
2023/12/13 05:47:34;;;;;;;61.70;29.60;;;;;;;4.71;100.00;97853.59;107591;1310;22263;-53
2023/12/13 05:50:00;;;;;;;61.60;30.80;;;;;;;4.72;100.00;97847.13;106795;1310;22250;-53
2023/12/13 05:52:25;;;;;;;61.50;30.80;;;;;;;4.74;100.00;97849.65;107588;1310;25356;-57
2023/12/13 05:54:50;;;;;;;62.50;32.30;;;;;;;4.73;100.00;97850.06;107596;1310;22244;-61
2023/12/13 05:57:16;;;;;;;58.70;31.80;;;;;;;4.72;100.00;97852.52;107608;1310;22559;-52
2023/12/13 05:59:42;;;;;;;60.00;30.60;;;;;;;4.71;100.00;97848.59;107595;1304;22573;-56
2023/12/13 06:02:08;;;;;;;61.00;34.20;;;;;;;4.68;100.00;97849.64;107567;1307;22253;-58
2023/12/13 06:04:33;;;;;;;66.70;33.00;;;;;;;4.66;100.00;97847.30;107610;1307;22275;-58
2023/12/13 06:06:59;;;;;;;65.70;34.10;;;;;;;4.65;100.00;97841.60;107591;1309;22255;-52
2023/12/13 06:09:24;;;;;;;65.60;32.70;;;;;;;4.65;100.00;97845.24;107598;1309;22245;-50
2023/12/13 06:11:50;;;;;;;64.70;33.30;;;;;;;4.67;100.00;97840.48;107583;1310;22206;-56
2023/12/13 06:14:15;;;;;;;71.30;36.20;;;;;;;4.68;100.00;97838.16;107603;1310;22250;-59
2023/12/13 06:16:41;;;;;;;64.80;34.60;;;;;;;4.65;100.00;97836.27;107610;1309;22334;-52
2023/12/13 06:19:06;;;;;;;62.60;33.50;;;;;;;4.65;100.00;97833.11;107609;1310;23137;-56
2023/12/13 06:21:33;;;;;;;64.70;34.30;;;;;;;4.64;100.00;97832.16;107604;1309;22294;-54
2023/12/13 06:23:59;;;;;;;63.00;31.40;;;;;;;4.65;100.00;97830.16;107606;1310;22491;-51
2023/12/13 06:26:24;;;;;;;59.00;29.90;;;;;;;4.65;100.00;97831.37;107590;1310;22258;-58
2023/12/13 06:28:49;;;;;;;65.10;30.90;;;;;;;4.64;100.00;97830.23;107592;1310;22241;-53
2023/12/13 06:31:15;;;;;;;69.70;36.30;;;;;;;4.64;100.00;97828.50;107600;1310;22306;-52
2023/12/13 06:33:40;;;;;;;63.50;33.30;;;;;;;4.61;100.00;97821.14;107605;1309;22261;-59
2023/12/13 06:36:06;;;;;;;71.10;35.00;;;;;;;4.62;100.00;97819.89;107616;1309;22744;-49
2023/12/13 06:38:31;;;;;;;56.10;30.10;;;;;;;4.63;100.00;97818.80;107602;1310;22392;-53
2023/12/13 06:40:57;;;;;;;55.50;30.10;;;;;;;4.66;100.00;97813.77;107605;1310;22478;-54
2023/12/13 06:43:22;;;;;;;55.80;29.80;;;;;;;4.67;100.00;97802.99;107609;1310;22257;-58
2023/12/13 06:45:47;;;;;;;54.40;29.40;;;;;;;4.68;100.00;97802.40;107615;1310;22428;-56
2023/12/13 06:48:13;;;;;;;64.20;31.30;;;;;;;4.69;100.00;97803.42;107598;1310;23407;-48
2023/12/13 06:50:38;;;;;;;55.90;28.90;;;;;;;4.66;100.00;97808.20;107585;1310;22162;-53
2023/12/13 06:53:04;;;;;;;52.60;28.30;;;;;;;4.67;100.00;97808.90;107580;1310;23291;-54
2023/12/13 06:55:29;;;;;;;53.50;26.30;;;;;;;4.68;100.00;97806.24;107628;1310;22435;-55
2023/12/13 06:57:55;;;;;;;52.40;27.30;;;;;;;4.70;100.00;97804.36;107609;1310;22247;-55
2023/12/13 07:00:21;;;;;;;53.00;27.10;;;;;;;4.73;100.00;97796.23;107584;1310;23034;-50
2023/12/13 07:02:47;;;;;;;61.50;30.90;;;;;;;4.74;100.00;97792.85;107591;1310;22309;-53
2023/12/13 07:05:13;;;;;;;57.30;28.90;;;;;;;4.75;100.00;97786.74;107609;1310;23034;-57
2023/12/13 07:07:38;;;;;;;53.40;28.00;;;;;;;4.76;100.00;97782.50;107609;1310;22334;-52
2023/12/13 07:10:04;;;;;;;47.00;24.50;;;;;;;4.79;100.00;97776.95;107622;1310;22250;-53
2023/12/13 07:12:29;;;;;;;52.90;26.50;;;;;;;4.82;100.00;97772.45;107606;1305;22430;-51
2023/12/13 07:14:58;;;;;;;47.30;24.60;;;;;;;4.85;100.00;97761.55;107623;1310;22308;-51
2023/12/13 07:17:24;;;;;;;48.00;25.50;;;;;;;4.87;100.00;97759.48;107606;1310;22427;-50
2023/12/13 07:19:51;;;;;;;53.40;26.00;;;;;;;4.89;100.00;97758.84;107605;1310;22538;-56
2023/12/13 07:22:18;;;;;;;56.60;27.50;;;;;;;4.93;100.00;97765.59;107616;1306;22304;-55
2023/12/13 07:24:44;;;;;;;55.00;27.70;;;;;;;4.95;100.00;97772.91;107613;1310;22477;-57
2023/12/13 07:27:09;;;;;;;56.20;28.60;;;;;;;4.98;100.00;97777.46;107600;1310;22256;-51
2023/12/13 07:29:35;;;;;;;54.90;26.90;;;;;;;4.98;100.00;97784.05;107602;1310;22256;-48
2023/12/13 07:32:00;;;;;;;55.40;26.80;;;;;;;5.02;100.00;97781.58;107601;1310;22273;-58
2023/12/13 07:34:25;;;;;;;48.50;23.90;;;;;;;5.04;100.00;97782.33;107587;1310;22420;-56
2023/12/13 07:36:53;;;;;;;48.50;25.40;;;;;;;5.02;100.00;97787.98;107599;1310;22511;-59
2023/12/13 07:39:19;;;;;;;50.40;26.70;;;;;;;5.03;100.00;97789.35;107602;1310;22266;-52
2023/12/13 07:41:44;;;;;;;45.10;26.00;;;;;;;5.06;100.00;97791.27;107615;1310;22444;-58
2023/12/13 07:44:09;;;;;;;51.50;24.90;;;;;;;5.07;100.00;97795.01;107602;1310;22338;-52
2023/12/13 07:46:36;;;;;;;47.10;26.10;;;;;;;5.09;100.00;97792.60;107623;1310;22439;-50
2023/12/13 07:49:03;;;;;;;51.30;25.60;;;;;;;5.10;100.00;97793.11;107582;1310;22263;-52
2023/12/13 07:51:32;;;;;;;54.30;25.20;;;;;;;5.11;100.00;97798.41;107618;1309;22298;-55
2023/12/13 07:54:01;;;;;;;49.00;24.50;;;;;;;5.12;100.00;97801.50;107618;1310;22240;-54
2023/12/13 07:56:28;;;;;;;49.20;25.00;;;;;;;5.16;100.00;97803.72;107712;1308;22583;-60
2023/12/13 07:58:56;;;;;;;45.00;25.10;;;;;;;5.17;100.00;97804.88;107283;1308;22254;-56
2023/12/13 08:01:22;;;;;;;51.00;26.70;;;;;;;5.14;100.00;97801.36;107747;1308;23147;-56
2023/12/13 08:03:48;;;;;;;55.10;28.10;;;;;;;5.16;100.00;97796.05;107735;1308;22472;-49
2023/12/13 08:06:14;;;;;;;48.50;25.50;;;;;;;5.19;100.00;97793.46;107745;1308;22419;-52
2023/12/13 08:08:40;;;;;;;47.80;25.20;;;;;;;5.22;100.00;97790.15;107711;1308;23258;-56
2023/12/13 08:11:06;;;;;;;43.40;23.20;;;;;;;5.26;100.00;97785.61;107737;1308;22249;-53
2023/12/13 08:13:33;;;;;;;54.60;24.80;;;;;;;5.27;100.00;97784.33;107732;1308;22502;-54
2023/12/13 08:15:58;;;;;;;44.00;23.70;;;;;;;5.27;100.00;97781.16;107727;1308;22946;-58
2023/12/13 08:18:24;;;;;;;53.00;23.40;;;;;;;5.26;100.00;97783.48;107714;1308;22465;-53
2023/12/13 08:20:49;;;;;;;40.20;22.90;;;;;;;5.28;100.00;97783.73;107727;1308;23145;-54
2023/12/13 08:23:15;;;;;;;45.30;22.70;;;;;;;5.27;99.99;97778.77;107730;1308;22985;-57
2023/12/13 08:25:41;;;;;;;39.40;21.90;;;;;;;5.24;99.82;97776.82;107719;1308;22371;-54
2023/12/13 08:28:07;;;;;;;46.00;23.60;;;;;;;5.22;99.75;97775.23;107734;1308;22230;-54
2023/12/13 08:30:32;;;;;;;46.50;23.20;;;;;;;5.22;99.91;97779.20;107726;1308;23120;-50
2023/12/13 08:32:58;;;;;;;61.90;29.40;;;;;;;5.23;99.94;97780.52;107734;1308;22494;-51
2023/12/13 08:35:24;;;;;;;67.00;28.80;;;;;;;5.24;99.92;97776.48;107738;1308;23010;-58
2023/12/13 08:37:49;;;;;;;70.20;32.70;;;;;;;5.27;100.00;97778.55;107695;1308;22245;-51
2023/12/13 08:40:15;;;;;;;68.90;36.70;;;;;;;5.28;99.84;97779.23;107702;1308;23191;-53
2023/12/13 08:42:40;;;;;;;55.60;31.00;;;;;;;5.26;99.39;97780.70;107717;1308;22254;-55
2023/12/13 08:45:06;;;;;;;59.30;31.30;;;;;;;5.28;99.75;97775.58;107726;1308;22267;-52
2023/12/13 08:47:32;;;;;;;56.80;30.80;;;;;;;5.29;99.67;97774.61;107710;1308;23024;-50
2023/12/13 08:49:57;;;;;;;46.50;25.90;;;;;;;5.30;99.79;97769.86;107713;1308;22276;-49
2023/12/13 08:52:23;;;;;;;48.80;25.00;;;;;;;5.29;99.31;97772.21;107714;1308;22454;-57
2023/12/13 08:54:48;;;;;;;45.10;22.40;;;;;;;5.27;99.25;97775.97;107720;1308;22258;-55
2023/12/13 08:57:13;;;;;;;44.50;22.10;;;;;;;5.25;98.84;97775.39;107723;1308;23020;-54
2023/12/13 08:59:39;;;;;;;40.40;21.70;;;;;;;5.25;98.86;97771.55;107721;1308;22262;-53
2023/12/13 09:02:04;;;;;;;39.80;20.80;;;;;;;5.28;99.14;97769.48;107721;1308;23941;-51
2023/12/13 09:04:29;;;;;;;38.00;21.50;;;;;;;5.28;99.19;97769.80;107698;1308;23467;-55
2023/12/13 09:06:55;;;;;;;40.30;20.40;;;;;;;5.30;99.32;97768.12;107744;1308;22314;-57
2023/12/13 09:09:20;;;;;;;37.50;20.70;;;;;;;5.30;98.51;97769.86;107737;1308;23095;-49
2023/12/13 09:11:47;;;;;;;39.70;21.40;;;;;;;5.31;98.10;97770.17;107735;1308;22298;-55
2023/12/13 09:14:13;;;;;;;39.00;21.30;;;;;;;5.32;98.32;97765.40;107708;1308;23057;-58
2023/12/13 09:16:39;;;;;;;38.10;21.80;;;;;;;5.36;98.30;97766.05;107736;1308;23722;-52
2023/12/13 09:19:06;;;;;;;45.30;21.30;;;;;;;5.40;98.34;97765.14;107697;1308;22254;-55
2023/12/13 09:21:31;;;;;;;48.10;21.60;;;;;;;5.44;98.43;97768.77;107725;1308;22938;-52
2023/12/13 09:23:57;;;;;;;45.60;24.20;;;;;;;5.47;98.46;97767.31;107731;1308;22257;-51
2023/12/13 09:26:22;;;;;;;55.70;27.40;;;;;;;5.48;98.08;97768.85;107718;1308;22354;-57
2023/12/13 09:28:47;;;;;;;42.50;23.10;;;;;;;5.52;98.29;97767.02;107631;1308;22592;-53
2023/12/13 09:31:13;;;;;;;41.90;24.40;;;;;;;5.55;97.73;97769.81;107551;1308;22401;-53
2023/12/13 09:33:39;;;;;;;48.50;25.50;;;;;;;5.56;97.39;97774.80;107693;1308;22260;-53
2023/12/13 09:36:06;;;;;;;44.80;24.30;;;;;;;5.54;97.08;97775.27;107730;1302;22450;-54
2023/12/13 09:38:31;;;;;;;44.10;24.30;;;;;;;5.56;97.08;97773.91;107721;1308;22328;-57
2023/12/13 09:40:57;;;;;;;51.30;25.30;;;;;;;5.55;96.78;97768.43;107731;1308;22782;-58
2023/12/13 09:43:23;;;;;;;45.50;24.40;;;;;;;5.53;96.61;97762.61;107718;1308;22988;-55
2023/12/13 09:45:51;;;;;;;36.70;22.50;;;;;;;5.49;96.20;97757.30;107681;1308;22434;-52
2023/12/13 09:48:21;;;;;;;;;;;;;;;5.45;96.23;97756.66;107723;1308;23034;-55
2023/12/13 09:50:52;;;;;;;43.50;21.00;;;;;;;5.45;96.08;97755.84;107718;1308;22219;-58
2023/12/13 09:53:21;;;;;;;39.20;22.00;;;;;;;5.48;96.13;97753.73;107739;1308;22305;-50
2023/12/13 09:55:47;;;;;;;42.40;21.90;;;;;;;5.51;96.60;97753.71;107711;1308;22357;-52
2023/12/13 09:58:13;;;;;;;41.10;23.30;;;;;;;5.57;96.79;97753.52;107706;1308;22420;-55
2023/12/13 10:00:38;;;;;;;45.70;25.00;;;;;;;5.65;96.97;97752.54;107679;1308;23608;-54
2023/12/13 10:03:05;;;;;;;39.70;22.70;;;;;;;5.70;96.48;97753.83;107700;1308;22266;-56
2023/12/13 10:05:32;;;;;;;40.00;21.20;;;;;;;5.71;95.86;97754.58;107716;1308;22258;-53
2023/12/13 10:08:02;;;;;;;37.30;21.00;;;;;;;5.76;96.30;97751.17;107712;1300;23304;-55
2023/12/13 10:10:31;;;;;;;42.60;20.90;;;;;;;5.85;96.53;97745.79;107724;1300;22565;-49
2023/12/13 10:13:01;;;;;;;34.60;20.40;;;;;;;5.95;96.79;97742.38;107698;1308;22497;-59
2023/12/13 10:15:33;;;;;;;37.50;19.70;;;;;;;6.03;96.51;97742.43;107690;1308;22734;-48
2023/12/13 10:18:00;;;;;;;41.30;21.50;;;;;;;6.08;95.13;97742.50;107567;1308;22455;-52
2023/12/13 10:20:26;;;;;;;40.60;20.40;;;;;;;6.16;95.34;97737.81;107713;1308;22330;-51
2023/12/13 10:22:53;;;;;;;34.90;18.40;;;;;;;6.28;95.35;97731.70;107745;1292;23658;-51
2023/12/13 10:25:22;;;;;;;35.20;18.80;;;;;;;6.35;94.22;97727.23;107818;1307;22290;-50
2023/12/13 10:27:53;;;;;;;35.20;19.70;;;;;;;6.44;94.67;97725.64;107819;1304;23017;-51
2023/12/13 10:30:19;;;;;;;33.40;18.80;;;;;;;6.52;94.81;97721.25;107610;1300;22248;-53
2023/12/13 10:32:45;;;;;;;41.10;20.90;;;;;;;6.57;94.04;97713.14;107433;1304;22530;-51
2023/12/13 10:35:10;;;;;;;37.40;20.80;;;;;;;6.62;93.98;97710.05;107435;1307;22436;-56
2023/12/13 10:37:36;;;;;;;41.60;20.30;;;;;;;6.66;93.91;97705.79;107761;1301;22726;-50
2023/12/13 10:40:04;;;;;;;33.50;18.90;;;;;;;6.68;93.78;97704.77;107712;1301;23167;-48
2023/12/13 10:42:30;;;;;;;;;;;;;;;6.70;93.78;97703.25;107652;1302;22560;-53
2023/12/13 10:44:55;;;;;;;40.40;20.30;;;;;;;6.67;92.83;97695.09;107612;1300;22489;-51
2023/12/13 10:47:25;;;;;;;33.40;19.10;;;;;;;6.68;92.85;97689.98;107654;1301;22272;-49
2023/12/13 10:49:55;;;;;;;40.30;20.10;;;;;;;6.67;92.59;97684.84;107625;1300;22498;-50
2023/12/13 10:52:23;;;;;;;32.20;19.10;;;;;;;6.62;91.94;97681.66;107709;1301;22491;-51
2023/12/13 10:54:50;;;;;;;34.70;20.00;;;;;;;6.61;92.18;97676.48;107680;1301;22258;-53
2023/12/13 10:57:17;;;;;;;33.10;18.90;;;;;;;6.60;92.00;97676.55;107678;1304;22319;-52
2023/12/13 10:59:43;;;;;;;36.70;18.40;;;;;;;6.59;92.13;97675.09;107695;1294;22209;-55
2023/12/13 11:02:16;;;;;;;34.40;19.30;;;;;;;6.58;92.09;97674.09;107722;1303;22438;-54
2023/12/13 11:04:45;;;;;;;37.70;18.30;;;;;;;6.58;91.97;97671.13;107763;1304;22486;-52
2023/12/13 11:07:11;;;;;;;34.10;17.50;;;;;;;6.57;91.81;97668.20;107735;1301;23119;-56
2023/12/13 11:09:48;;;;;;;35.00;19.20;;;;;;;6.60;92.20;97666.30;107752;1300;22237;-57